createdAt,value
2023-03-14T00:00:30.909Z,98373.34
2023-03-14T00:02:58.833Z,98369.38
2023-03-14T00:05:28.426Z,98365.41
2023-03-14T00:07:56.489Z,98361.06
2023-03-14T00:10:24.372Z,98342.91
2023-03-14T00:12:52.280Z,98315.47
2023-03-14T00:15:20.166Z,98314.66
2023-03-14T00:17:48.038Z,98295.44
2023-03-14T00:20:15.949Z,98294.41
2023-03-14T00:22:45.168Z,98326.81
2023-03-14T00:25:13.800Z,98314.22
2023-03-14T00:27:41.655Z,98302.38
2023-03-14T00:30:10.671Z,98288.03
2023-03-14T00:32:38.878Z,98334.22
2023-03-14T00:35:07.732Z,98316.75
2023-03-14T00:37:35.640Z,98332.09
2023-03-14T00:40:07.526Z,98336.69
2023-03-14T00:42:35.585Z,98325.31
2023-03-14T00:45:04.784Z,98335.34
2023-03-14T00:47:35.389Z,98336.06
2023-03-14T00:50:03.311Z,98347.34
2023-03-14T00:52:31.357Z,98351.97
2023-03-14T00:54:59.251Z,98357.03
2023-03-14T00:57:28.470Z,98351.72
2023-03-14T00:59:56.381Z,98343.25
2023-03-14T01:02:24.305Z,98343.53
2023-03-14T01:04:52.356Z,98326.38
2023-03-14T01:07:20.315Z,98309.03
2023-03-14T01:09:48.280Z,98301.00
2023-03-14T01:12:16.304Z,98298.66
2023-03-14T01:14:45.951Z,98297.78
2023-03-14T01:17:13.842Z,98292.53
2023-03-14T01:19:41.845Z,98196.72
2023-03-14T01:22:09.789Z,98288.69
2023-03-14T01:24:39.744Z,98270.09
2023-03-14T01:27:08.008Z,98276.34
2023-03-14T01:29:35.950Z,98272.56
2023-03-14T01:32:06.231Z,98273.22
2023-03-14T01:34:34.286Z,98293.22
2023-03-14T01:37:02.201Z,98286.16
2023-03-14T01:39:31.328Z,98258.69
2023-03-14T01:42:00.288Z,98274.97
2023-03-14T01:44:28.798Z,98291.31
2023-03-14T01:46:56.930Z,98291.56
2023-03-14T01:49:30.690Z,98301.81
2023-03-14T01:52:09.010Z,98286.47
2023-03-14T01:54:41.045Z,98248.09
2023-03-14T01:57:14.416Z,98237.09
2023-03-14T01:59:45.028Z,98240.88
2023-03-14T02:02:15.368Z,98260.69
2023-03-14T02:04:45.728Z,98262.97
2023-03-14T02:07:19.396Z,98258.88
2023-03-14T02:09:59.070Z,98271.53
2023-03-14T02:12:32.094Z,98264.69
2023-03-14T02:15:13.722Z,98267.47
2023-03-14T02:17:52.134Z,98287.06
2023-03-14T02:20:40.676Z,98285.13
2023-03-14T02:23:08.779Z,98290.47
2023-03-14T02:25:43.362Z,98300.25
2023-03-14T02:28:13.822Z,98277.13
2023-03-14T02:30:43.150Z,98274.75
2023-03-14T02:33:14.708Z,98279.34
2023-03-14T02:35:48.552Z,98279.56
2023-03-14T02:38:22.778Z,98263.16
2023-03-14T02:40:52.212Z,98269.06
2023-03-14T02:43:21.730Z,98279.69
2023-03-14T02:45:55.776Z,98276.34
2023-03-14T02:48:28.453Z,98236.63
2023-03-14T02:50:59.821Z,98264.84
2023-03-14T02:53:30.367Z,98250.56
2023-03-14T02:56:01.491Z,98251.66
2023-03-14T02:58:32.905Z,98215.66
2023-03-14T03:01:09.211Z,98251.03
2023-03-14T03:03:37.389Z,98217.28
2023-03-14T03:06:05.695Z,98254.13
2023-03-14T03:08:33.871Z,98245.06
2023-03-14T03:11:03.238Z,98247.31
2023-03-14T03:13:34.881Z,98241.66
2023-03-14T03:16:04.628Z,98254.13
2023-03-14T03:18:32.527Z,98245.78
2023-03-14T03:21:02.351Z,98236.75
2023-03-14T03:23:30.336Z,98245.47
2023-03-14T03:26:01.420Z,98233.69
2023-03-14T03:28:29.484Z,98224.72
2023-03-14T03:31:00.284Z,98234.41
2023-03-14T03:33:55.849Z,98213.44
2023-03-14T03:36:26.139Z,98215.56
2023-03-14T03:39:00.181Z,98218.97
2023-03-14T03:41:28.274Z,98214.84
2023-03-14T03:43:56.921Z,98220.78
2023-03-14T03:46:27.070Z,98224.09
2023-03-14T03:48:57.129Z,98219.09
2023-03-14T03:51:25.447Z,98228.16
2023-03-14T03:53:53.403Z,98272.38
2023-03-14T03:56:28.470Z,98280.94
2023-03-14T03:58:56.389Z,98287.00
2023-03-14T04:01:26.953Z,98269.78
2023-03-14T04:03:58.120Z,98265.97
2023-03-14T04:06:26.887Z,98225.31
2023-03-14T04:08:57.888Z,98230.25
2023-03-14T04:11:46.218Z,98227.34
2023-03-14T04:14:27.354Z,98210.94
2023-03-14T04:17:13.410Z,98249.88
2023-03-14T04:19:41.680Z,98246.63
2023-03-14T04:22:09.706Z,98246.13
2023-03-14T04:24:46.663Z,98235.00
2023-03-14T04:27:15.583Z,98232.91
2023-03-14T04:29:45.057Z,98244.66
2023-03-14T04:32:17.580Z,98245.22
2023-03-14T04:34:45.595Z,98241.50
2023-03-14T04:37:13.739Z,98243.69
2023-03-14T04:39:45.162Z,98230.75
2023-03-14T04:42:20.138Z,98229.81
2023-03-14T04:44:50.419Z,98232.44
2023-03-14T04:47:20.699Z,98211.56
2023-03-14T04:49:50.169Z,98230.91
2023-03-14T04:52:18.390Z,98168.97
2023-03-14T04:54:46.358Z,98219.09
2023-03-14T04:57:14.317Z,98196.50
2023-03-14T04:59:42.878Z,98223.63
2023-03-14T05:02:31.801Z,98217.09
2023-03-14T05:05:09.984Z,98183.94
2023-03-14T05:07:53.803Z,98201.19
2023-03-14T05:10:37.535Z,98192.28
2023-03-14T05:13:31.779Z,98192.63
2023-03-14T05:16:17.466Z,98141.13
2023-03-14T05:18:49.837Z,98172.84
2023-03-14T05:21:40.654Z,98191.28
2023-03-14T05:24:27.079Z,98160.16
2023-03-14T05:27:09.159Z,98191.63
2023-03-14T05:29:55.601Z,98200.22
2023-03-14T05:32:23.577Z,98189.00
2023-03-14T05:35:19.036Z,98195.13
2023-03-14T05:37:53.634Z,98196.91
2023-03-14T05:40:37.753Z,98197.28
2023-03-14T05:43:34.504Z,98200.78
2023-03-14T05:46:21.223Z,98180.31
2023-03-14T05:48:55.527Z,98187.44
2023-03-14T05:51:41.804Z,98188.56
2023-03-14T05:54:20.608Z,98184.94
2023-03-14T05:57:02.029Z,98167.31
2023-03-14T05:59:32.685Z,98191.41
2023-03-14T06:02:19.019Z,98163.47
2023-03-14T06:04:59.168Z,98181.06
2023-03-14T06:07:28.492Z,98163.97
2023-03-14T06:09:56.812Z,98167.84
2023-03-14T06:12:24.730Z,98167.63
2023-03-14T06:14:52.649Z,98168.88
2023-03-14T06:17:20.888Z,98170.31
2023-03-14T06:19:59.373Z,98180.59
2023-03-14T06:22:28.770Z,98177.72
2023-03-14T06:24:56.849Z,98183.41
2023-03-14T06:27:26.301Z,98172.31
2023-03-14T06:29:57.080Z,98188.72
2023-03-14T06:32:26.511Z,98194.00
2023-03-14T06:35:01.795Z,98199.69
2023-03-14T06:37:32.323Z,98194.75
2023-03-14T06:40:00.277Z,98191.63
2023-03-14T06:42:47.240Z,98195.97
2023-03-14T06:45:17.807Z,98187.44
2023-03-14T06:47:46.408Z,98195.38
2023-03-14T06:50:15.009Z,98191.66
2023-03-14T06:52:48.755Z,98205.88
2023-03-14T06:55:22.783Z,98197.44
2023-03-14T06:57:51.906Z,98203.75
2023-03-14T07:00:21.092Z,98206.88
2023-03-14T07:02:49.153Z,98183.69
2023-03-14T07:05:26.295Z,98204.56
2023-03-14T07:07:55.960Z,98210.31
2023-03-14T07:10:24.843Z,98201.75
2023-03-14T07:12:53.650Z,98207.09
2023-03-14T07:15:22.819Z,98220.13
2023-03-14T07:17:57.072Z,98203.75
2023-03-14T07:20:25.750Z,98205.53
2023-03-14T07:22:56.230Z,98203.97
2023-03-14T07:25:40.146Z,98209.75
2023-03-14T07:28:08.472Z,98209.50
2023-03-14T07:30:38.090Z,98212.66
2023-03-14T07:33:12.980Z,98217.13
2023-03-14T07:35:41.060Z,98216.66
2023-03-14T07:38:10.493Z,98221.09
2023-03-14T07:40:46.165Z,98221.47
2023-03-14T07:43:14.310Z,98222.16
2023-03-14T07:45:58.647Z,98223.63
2023-03-14T07:48:27.883Z,98229.28
2023-03-14T07:50:56.965Z,98216.50
2023-03-14T07:53:26.569Z,98233.16
2023-03-14T07:55:55.807Z,98236.50
2023-03-14T07:58:24.282Z,98226.50
2023-03-14T08:00:52.431Z,98237.09
2023-03-14T08:03:20.616Z,98236.25
2023-03-14T08:05:50.119Z,98217.94
2023-03-14T08:08:18.286Z,98229.28
2023-03-14T08:10:48.237Z,98217.94
2023-03-14T08:13:16.446Z,98221.06
2023-03-14T08:15:44.376Z,98233.50
2023-03-14T08:18:12.329Z,98209.59
2023-03-14T08:20:40.273Z,98234.47
2023-03-14T08:23:08.211Z,98230.34
2023-03-14T08:25:36.405Z,98224.09
2023-03-14T08:28:06.288Z,98215.91
2023-03-14T08:30:34.177Z,98229.06
2023-03-14T08:33:02.250Z,98226.75
2023-03-14T08:35:30.328Z,98226.88
2023-03-14T08:37:58.262Z,98221.19
2023-03-14T08:40:26.194Z,98223.31
2023-03-14T08:42:54.695Z,98235.13
2023-03-14T08:45:26.020Z,98225.41
2023-03-14T08:47:53.973Z,98230.97
2023-03-14T08:50:21.886Z,98201.44
2023-03-14T08:52:49.846Z,98226.09
2023-03-14T08:55:18.055Z,98226.72
2023-03-14T08:57:46.050Z,98228.03
2023-03-14T09:00:16.264Z,98230.72
2023-03-14T09:02:45.638Z,98225.91
2023-03-14T09:05:14.158Z,98230.50
2023-03-14T09:07:42.944Z,98236.19
2023-03-14T09:10:12.520Z,98231.94
2023-03-14T09:12:40.877Z,98233.19
2023-03-14T09:15:10.210Z,98224.72
2023-03-14T09:17:38.215Z,98226.91
2023-03-14T09:20:09.966Z,98210.47
2023-03-14T09:22:38.216Z,98222.31
2023-03-14T09:25:07.151Z,98237.63
2023-03-14T09:27:35.075Z,98225.31
2023-03-14T09:30:03.134Z,98241.84
2023-03-14T09:32:32.493Z,98242.56
2023-03-14T09:35:00.516Z,98241.50
2023-03-14T09:37:29.759Z,98236.34
2023-03-14T09:39:57.663Z,98241.66
2023-03-14T09:42:28.754Z,98244.91
2023-03-14T09:45:03.718Z,98240.53
2023-03-14T09:47:32.359Z,98236.19
2023-03-14T09:50:02.551Z,98212.69
2023-03-14T09:52:37.112Z,98219.22
2023-03-14T09:55:08.493Z,98231.31
2023-03-14T09:57:39.417Z,98232.88
2023-03-14T10:00:16.377Z,98226.16
2023-03-14T10:02:49.050Z,98222.91
2023-03-14T10:05:18.898Z,98208.78
2023-03-14T10:07:48.255Z,98221.47
2023-03-14T10:10:20.197Z,98214.47
2023-03-14T10:12:49.943Z,98213.91
2023-03-14T10:15:26.714Z,98233.81
2023-03-14T10:17:55.238Z,98223.44
2023-03-14T10:20:36.178Z,98233.81
2023-03-14T10:23:08.555Z,98222.81
2023-03-14T10:25:38.884Z,98223.06
2023-03-14T10:28:07.960Z,98235.41
2023-03-14T10:30:45.295Z,98219.59
2023-03-14T10:33:22.055Z,98218.22
2023-03-14T10:35:56.933Z,98204.97
2023-03-14T10:38:28.600Z,98237.59
2023-03-14T10:40:59.641Z,98227.91
2023-03-14T10:43:30.341Z,98222.69
2023-03-14T10:46:00.834Z,98242.50
2023-03-14T10:48:34.164Z,98236.66
2023-03-14T10:51:07.308Z,98231.53
2023-03-14T10:53:43.058Z,98212.97
2023-03-14T10:56:14.067Z,98226.31
2023-03-14T10:58:44.262Z,98213.41
2023-03-14T11:01:27.479Z,98225.72
2023-03-14T11:04:01.369Z,98225.81
2023-03-14T11:06:38.153Z,98225.16
2023-03-14T11:09:17.954Z,98228.88
2023-03-14T11:11:49.139Z,98219.41
2023-03-14T11:14:26.537Z,98230.81
2023-03-14T11:16:59.183Z,98218.94
2023-03-14T11:20:00.927Z,98230.84
2023-03-14T11:22:38.311Z,98285.91
2023-03-14T11:25:28.364Z,60620.00
2023-03-14T11:28:07.241Z,60620.00
2023-03-14T11:30:41.334Z,60620.00
2023-03-14T11:33:16.299Z,60620.00
2023-03-14T11:35:50.087Z,60620.00
2023-03-14T11:38:30.858Z,60620.00
2023-03-14T11:41:01.649Z,60620.00
2023-03-14T11:43:32.988Z,60620.00
2023-03-14T11:46:07.698Z,60620.00
2023-03-14T11:48:41.957Z,60620.00
2023-03-14T11:51:17.352Z,60620.00
2023-03-14T11:53:53.100Z,60620.00
2023-03-14T11:56:31.546Z,60620.00
2023-03-14T11:59:04.000Z,60620.00
2023-03-14T12:01:46.512Z,60620.00
2023-03-14T12:04:23.124Z,60620.00
2023-03-14T12:06:52.394Z,60620.00
2023-03-14T12:09:23.375Z,60620.00
2023-03-14T12:11:57.608Z,60620.00
2023-03-14T12:14:29.003Z,60620.00
2023-03-14T12:16:59.216Z,60620.00
2023-03-14T12:19:37.108Z,60620.00
2023-03-14T12:22:19.503Z,60620.00
2023-03-14T12:24:51.853Z,60620.00
2023-03-14T12:27:47.549Z,60620.00
2023-03-14T12:30:28.295Z,60620.00
2023-03-14T12:33:31.823Z,60620.00
2023-03-14T12:36:02.371Z,60620.00
2023-03-14T12:38:44.858Z,60620.00
2023-03-14T12:41:17.478Z,60620.00
2023-03-14T12:43:46.820Z,60620.00
2023-03-14T12:46:32.832Z,60620.00
2023-03-14T12:49:10.223Z,60620.00
2023-03-14T12:51:40.136Z,60620.00
2023-03-14T12:54:26.002Z,60620.00
2023-03-14T12:57:17.568Z,60620.00
2023-03-14T12:59:53.330Z,60620.00
2023-03-14T13:02:27.209Z,60620.00
2023-03-14T13:05:04.731Z,60620.00
2023-03-14T13:07:36.347Z,60620.00
2023-03-14T13:10:18.648Z,60620.00
2023-03-14T13:12:51.545Z,60620.00
2023-03-14T13:15:24.781Z,60620.00
2023-03-14T13:17:55.704Z,60620.00
2023-03-14T13:20:31.423Z,60620.00
2023-03-14T13:22:59.386Z,60620.00
2023-03-14T13:25:31.801Z,60620.00
2023-03-14T13:28:00.542Z,60620.00
2023-03-14T13:30:37.506Z,60620.00
2023-03-14T13:33:07.090Z,60620.00
2023-03-14T13:35:42.563Z,60620.00
2023-03-14T13:38:18.584Z,60620.00
2023-03-14T13:40:48.003Z,60620.00
2023-03-14T13:43:19.424Z,60620.00
2023-03-14T13:45:52.612Z,60620.00
2023-03-14T13:48:21.605Z,60620.00
2023-03-14T13:50:55.386Z,60620.00
2023-03-14T13:53:24.017Z,60620.00
2023-03-14T13:55:53.015Z,60620.00
2023-03-14T13:58:32.725Z,60620.00
2023-03-14T14:01:03.576Z,60620.00
2023-03-14T14:03:34.233Z,60620.00
2023-03-14T14:06:02.219Z,60620.00
2023-03-14T14:08:30.371Z,60620.00
2023-03-14T14:11:03.709Z,60620.00
2023-03-14T14:13:35.390Z,60620.00
2023-03-14T14:16:06.186Z,60620.00
2023-03-14T14:18:35.645Z,60620.00
2023-03-14T14:21:04.961Z,60620.00
2023-03-14T14:23:33.242Z,60620.00
2023-03-14T14:26:01.913Z,60620.00
2023-03-14T14:28:33.086Z,60620.00
2023-03-14T14:31:18.799Z,60620.00
2023-03-14T14:33:48.319Z,60620.00
2023-03-14T14:36:23.019Z,60620.00
2023-03-14T14:38:55.603Z,60620.00
2023-03-14T14:41:28.209Z,60620.00
2023-03-14T14:43:57.119Z,60620.00
2023-03-14T14:46:30.027Z,60620.00
2023-03-14T14:49:00.109Z,60620.00
2023-03-14T14:51:33.691Z,60620.00
2023-03-14T14:54:05.235Z,60620.00
2023-03-14T14:56:38.670Z,60620.00
2023-03-14T14:59:09.727Z,60620.00
2023-03-14T15:01:41.245Z,60620.00
2023-03-14T15:04:14.841Z,60620.00
2023-03-14T15:06:44.463Z,60620.00
2023-03-14T15:09:12.661Z,60620.00
2023-03-14T15:11:40.607Z,60620.00
2023-03-14T15:14:08.815Z,60620.00
2023-03-14T15:16:37.430Z,60620.00
2023-03-14T15:19:24.220Z,60620.00
2023-03-14T15:21:53.628Z,60620.00
2023-03-14T15:24:21.668Z,60620.00
2023-03-14T15:26:49.655Z,60620.00
2023-03-14T15:29:17.630Z,60620.00
2023-03-14T15:31:46.164Z,60620.00
2023-03-14T15:34:15.943Z,60620.00
2023-03-14T15:36:44.016Z,60620.00
2023-03-14T15:39:12.304Z,60620.00
2023-03-14T15:41:40.313Z,60620.00
2023-03-14T15:44:08.362Z,60620.00
2023-03-14T15:46:36.534Z,60620.00
2023-03-14T15:49:04.505Z,60620.00
2023-03-14T15:51:34.230Z,60620.00
2023-03-14T15:54:02.235Z,60620.00
2023-03-14T15:56:31.968Z,60620.00
2023-03-14T15:59:00.333Z,60620.00
2023-03-14T16:01:28.681Z,60620.00
2023-03-14T16:03:59.696Z,60620.00
2023-03-14T16:06:27.904Z,60620.00
2023-03-14T16:08:57.199Z,60620.00
2023-03-14T16:11:25.156Z,60620.00
2023-03-14T16:13:53.171Z,60620.00
2023-03-14T16:16:21.181Z,60620.00
2023-03-14T16:18:49.185Z,60620.00
2023-03-14T16:21:18.471Z,60620.00
2023-03-14T16:23:47.253Z,60620.00
2023-03-14T16:26:18.540Z,60620.00
2023-03-14T16:28:47.431Z,60620.00
2023-03-14T16:31:17.709Z,60620.00
2023-03-14T16:33:46.138Z,60620.00
2023-03-14T16:36:15.318Z,60620.00
2023-03-14T16:38:44.988Z,60620.00
2023-03-14T16:41:15.013Z,60620.00
2023-03-14T16:43:44.682Z,60620.00
2023-03-14T16:46:16.770Z,60620.00
2023-03-14T16:48:45.107Z,60620.00
2023-03-14T16:51:14.012Z,60620.00
2023-03-14T16:53:41.940Z,60620.00
2023-03-14T16:56:10.940Z,60620.00
2023-03-14T16:58:39.375Z,60620.00
2023-03-14T17:01:11.403Z,60620.00
2023-03-14T17:03:40.869Z,60620.00
2023-03-14T17:06:11.466Z,60620.00
2023-03-14T17:08:39.428Z,60620.00
2023-03-14T17:11:08.156Z,60620.00
2023-03-14T17:13:36.620Z,60620.00
2023-03-14T17:16:05.283Z,60620.00
2023-03-14T17:18:34.693Z,60620.00
2023-03-14T17:21:02.615Z,60620.00
2023-03-14T17:23:32.566Z,60620.00
2023-03-14T17:26:00.989Z,60620.00
2023-03-14T17:28:29.113Z,60620.00
2023-03-14T17:31:05.527Z,60620.00
2023-03-14T17:33:35.603Z,60620.00
2023-03-14T17:36:04.156Z,60620.00
2023-03-14T17:38:32.439Z,60620.00
2023-03-14T17:41:00.388Z,60620.00
2023-03-14T17:43:28.349Z,60620.00
2023-03-14T17:46:00.526Z,60620.00
2023-03-14T17:48:29.086Z,60620.00
2023-03-14T17:51:02.143Z,60620.00
2023-03-14T17:53:30.545Z,60620.00
2023-03-14T17:56:00.839Z,60620.00
2023-03-14T17:58:28.934Z,60620.00
2023-03-14T18:00:57.036Z,60620.00
2023-03-14T18:03:25.091Z,60620.00
2023-03-14T18:05:52.999Z,60620.00
2023-03-14T18:08:22.287Z,60620.00
2023-03-14T18:10:54.841Z,60620.00
2023-03-14T18:13:22.794Z,60620.00
2023-03-14T18:15:53.615Z,60620.00
2023-03-14T18:18:21.564Z,60620.00
2023-03-14T18:20:50.778Z,60620.00
2023-03-14T18:23:18.729Z,60620.00
2023-03-14T18:25:49.263Z,60620.00
2023-03-14T18:28:18.468Z,60620.00
2023-03-14T18:30:52.103Z,60620.00
2023-03-14T18:33:22.049Z,60620.00
2023-03-14T18:35:51.447Z,60620.00
2023-03-14T18:38:19.732Z,60620.00
2023-03-14T18:40:49.114Z,60620.00
2023-03-14T18:43:17.058Z,60620.00
2023-03-14T18:45:45.031Z,60620.00
2023-03-14T18:48:13.049Z,60620.00
2023-03-14T18:50:44.097Z,60620.00
2023-03-14T18:53:12.002Z,60620.00
2023-03-14T18:55:41.137Z,60620.00
2023-03-14T18:58:11.200Z,60620.00
2023-03-14T19:00:39.179Z,60620.00
2023-03-14T19:03:07.315Z,60620.00
2023-03-14T19:05:35.190Z,60620.00
2023-03-14T19:08:06.611Z,60620.00
2023-03-14T19:10:34.570Z,60620.00
2023-03-14T19:13:02.558Z,60620.00
2023-03-14T19:15:31.844Z,60620.00
2023-03-14T19:17:59.784Z,60620.00
2023-03-14T19:20:27.703Z,60620.00
2023-03-14T19:22:58.165Z,60620.00
2023-03-14T19:25:26.158Z,60620.00
2023-03-14T19:27:54.138Z,60620.00
2023-03-14T19:30:22.799Z,60620.00
2023-03-14T19:32:52.334Z,60620.00
2023-03-14T19:35:20.624Z,60620.00
2023-03-14T19:37:48.560Z,60620.00
2023-03-14T19:40:16.887Z,60620.00
2023-03-14T19:42:45.642Z,60620.00
2023-03-14T19:45:13.764Z,60620.00
2023-03-14T19:47:41.722Z,60620.00
2023-03-14T19:50:12.773Z,60620.00
2023-03-14T19:52:44.572Z,60620.00
2023-03-14T19:55:13.154Z,60620.00
2023-03-14T19:57:41.188Z,60620.00
2023-03-14T20:00:17.170Z,60620.00
2023-03-14T20:02:45.157Z,60620.00
2023-03-14T20:05:14.798Z,60620.00
2023-03-14T20:07:42.832Z,60620.00
2023-03-14T20:10:12.911Z,60620.00
2023-03-14T20:12:40.989Z,60620.00
2023-03-14T20:15:10.265Z,60620.00
2023-03-14T20:17:38.664Z,60620.00
2023-03-14T20:20:09.416Z,60620.00
2023-03-14T20:22:39.079Z,60620.00
2023-03-14T20:25:07.955Z,60620.00
2023-03-14T20:27:38.255Z,60620.00
2023-03-14T20:30:10.851Z,60620.00
2023-03-14T20:32:39.052Z,60620.00
2023-03-14T20:35:08.346Z,60620.00
2023-03-14T20:37:36.456Z,60620.00
2023-03-14T20:40:07.761Z,60620.00
2023-03-14T20:42:35.801Z,60620.00
2023-03-14T20:45:04.792Z,60620.00
2023-03-14T20:47:32.787Z,60620.00
2023-03-14T20:50:01.582Z,60620.00
2023-03-14T20:52:29.569Z,60620.00
2023-03-14T20:54:59.577Z,60620.00
2023-03-14T20:57:29.281Z,60620.00
2023-03-14T20:59:58.453Z,60620.00
2023-03-14T21:02:28.298Z,60620.00
2023-03-14T21:04:58.376Z,60620.00
2023-03-14T21:07:26.369Z,60620.00
2023-03-14T21:09:54.300Z,60620.00
2023-03-14T21:12:22.269Z,60620.00
2023-03-14T21:14:51.684Z,60620.00
2023-03-14T21:17:19.616Z,60620.00
2023-03-14T21:19:47.577Z,60620.00
2023-03-14T21:22:18.355Z,60620.00
2023-03-14T21:24:47.051Z,60620.00
2023-03-14T21:27:15.184Z,60620.00
2023-03-14T21:29:43.217Z,60620.00
2023-03-14T21:32:12.597Z,60620.00
2023-03-14T21:34:40.654Z,60620.00
2023-03-14T21:37:08.630Z,60620.00
2023-03-14T21:39:36.692Z,60620.00
2023-03-14T21:42:04.965Z,60620.00
2023-03-14T21:44:37.000Z,60620.00
2023-03-14T21:47:06.186Z,60620.00
2023-03-14T21:49:38.068Z,60620.00
2023-03-14T21:52:06.990Z,60620.00
2023-03-14T21:54:36.883Z,60620.00
2023-03-14T21:57:09.151Z,60620.00
2023-03-14T21:59:38.876Z,60620.00
2023-03-14T22:02:09.109Z,60620.00
2023-03-14T22:04:39.243Z,60620.00
2023-03-14T22:07:09.535Z,60620.00
2023-03-14T22:09:40.409Z,60620.00
2023-03-14T22:12:08.636Z,60620.00
2023-03-14T22:14:36.559Z,60620.00
2023-03-14T22:17:04.605Z,60620.00
2023-03-14T22:19:35.320Z,60620.00
2023-03-14T22:22:06.968Z,60620.00
2023-03-14T22:24:34.942Z,60620.00
2023-03-14T22:27:02.892Z,60620.00
2023-03-14T22:29:30.861Z,60620.00
2023-03-14T22:31:58.755Z,60620.00
2023-03-14T22:34:31.349Z,60620.00
2023-03-14T22:36:59.975Z,60620.00
2023-03-14T22:39:30.050Z,60620.00
2023-03-14T22:41:57.932Z,60620.00
2023-03-14T22:44:25.911Z,60620.00
2023-03-14T22:46:53.777Z,60620.00
2023-03-14T22:49:21.769Z,60620.00
2023-03-14T22:51:49.658Z,60620.00
2023-03-14T22:54:17.656Z,60620.00
2023-03-14T22:56:46.891Z,60620.00
2023-03-14T22:59:15.238Z,60620.00
2023-03-14T23:01:45.701Z,60620.00
2023-03-14T23:04:13.578Z,60620.00
2023-03-14T23:06:41.490Z,60620.00
2023-03-14T23:09:09.456Z,60620.00
2023-03-14T23:11:37.410Z,60620.00
2023-03-14T23:14:07.091Z,60620.00
2023-03-14T23:16:40.520Z,60620.00
2023-03-14T23:19:09.912Z,60620.00
2023-03-14T23:21:38.146Z,60620.00
2023-03-14T23:24:06.651Z,60620.00
2023-03-14T23:26:35.753Z,60620.00
2023-03-14T23:29:06.411Z,60620.00
2023-03-14T23:31:34.675Z,60620.00
2023-03-14T23:34:02.867Z,60620.00
2023-03-14T23:36:30.988Z,60620.00
2023-03-14T23:38:58.971Z,60620.00
2023-03-14T23:41:26.899Z,60620.00
2023-03-14T23:43:54.789Z,60620.00
2023-03-14T23:46:24.004Z,60620.00
2023-03-14T23:48:52.537Z,60620.00
2023-03-14T23:51:20.481Z,60620.00
2023-03-14T23:53:48.678Z,60620.00
2023-03-14T23:56:18.273Z,60620.00
2023-03-14T23:58:46.169Z,60620.00
